sensor_id;sensor_type;location;lat;lon;timestamp;pressure;altitude;pressure_sealevel;temperature;humidity
74627;BME280;63132;52.268;5.192;2024-02-28T00:01:28;101862.28;;;7.01;62.12
74627;BME280;63132;52.268;5.192;2024-02-28T00:03:53;101862.00;;;6.90;62.33
74627;BME280;63132;52.268;5.192;2024-02-28T00:06:18;101862.88;;;6.78;62.65
74627;BME280;63132;52.268;5.192;2024-02-28T00:08:44;101854.91;;;6.61;62.73
74627;BME280;63132;52.268;5.192;2024-02-28T00:11:09;101853.25;;;6.56;62.93
74627;BME280;63132;52.268;5.192;2024-02-28T00:13:35;101853.72;;;6.46;62.82
74627;BME280;63132;52.268;5.192;2024-02-28T00:16:01;101852.72;;;6.38;63.27
74627;BME280;63132;52.268;5.192;2024-02-28T00:18:26;101854.84;;;6.29;63.18
74627;BME280;63132;52.268;5.192;2024-02-28T00:20:51;101848.53;;;6.29;63.16
74627;BME280;63132;52.268;5.192;2024-02-28T00:23:17;101854.63;;;6.22;63.34
74627;BME280;63132;52.268;5.192;2024-02-28T00:25:42;101853.81;;;6.22;63.54
74627;BME280;63132;52.268;5.192;2024-02-28T00:28:08;101852.03;;;6.14;63.42
74627;BME280;63132;52.268;5.192;2024-02-28T00:30:33;101849.56;;;5.96;63.01
74627;BME280;63132;52.268;5.192;2024-02-28T00:33:00;101851.59;;;5.99;63.55
74627;BME280;63132;52.268;5.192;2024-02-28T00:35:25;101854.47;;;5.91;63.30
74627;BME280;63132;52.268;5.192;2024-02-28T00:37:51;101851.38;;;5.92;63.73
74627;BME280;63132;52.268;5.192;2024-02-28T00:40:16;101853.19;;;5.88;63.82
74627;BME280;63132;52.268;5.192;2024-02-28T00:42:41;101856.41;;;5.78;63.34
74627;BME280;63132;52.268;5.192;2024-02-28T00:45:08;101847.28;;;5.74;63.43
74627;BME280;63132;52.268;5.192;2024-02-28T00:47:34;101849.31;;;5.65;63.45
74627;BME280;63132;52.268;5.192;2024-02-28T00:50:00;101852.41;;;5.75;63.74
74627;BME280;63132;52.268;5.192;2024-02-28T00:52:28;101860.31;;;5.77;63.35
74627;BME280;63132;52.268;5.192;2024-02-28T00:54:53;101845.66;;;5.73;63.90
74627;BME280;63132;52.268;5.192;2024-02-28T00:57:19;101853.22;;;5.64;63.43
74627;BME280;63132;52.268;5.192;2024-02-28T00:59:44;101851.19;;;5.61;63.84
74627;BME280;63132;52.268;5.192;2024-02-28T01:02:09;101844.53;;;5.49;63.40
74627;BME280;63132;52.268;5.192;2024-02-28T01:04:35;101845.81;;;5.52;63.54
74627;BME280;63132;52.268;5.192;2024-02-28T01:07:00;101846.94;;;5.51;63.32
74627;BME280;63132;52.268;5.192;2024-02-28T01:09:26;101843.72;;;5.49;63.84
74627;BME280;63132;52.268;5.192;2024-02-28T01:11:51;101850.94;;;5.41;63.68
74627;BME280;63132;52.268;5.192;2024-02-28T01:14:16;101855.41;;;5.46;64.15
74627;BME280;63132;52.268;5.192;2024-02-28T01:16:42;101851.50;;;5.35;63.74
74627;BME280;63132;52.268;5.192;2024-02-28T01:19:07;101851.88;;;5.45;64.05
74627;BME280;63132;52.268;5.192;2024-02-28T01:21:32;101846.81;;;5.47;63.97
74627;BME280;63132;52.268;5.192;2024-02-28T01:23:58;101860.78;;;5.54;63.80
74627;BME280;63132;52.268;5.192;2024-02-28T01:26:23;101852.91;;;5.53;63.99
74627;BME280;63132;52.268;5.192;2024-02-28T01:28:49;101843.38;;;5.63;64.33
74627;BME280;63132;52.268;5.192;2024-02-28T01:31:14;101855.28;;;5.54;64.04
74627;BME280;63132;52.268;5.192;2024-02-28T01:33:40;101850.25;;;5.56;63.83
74627;BME280;63132;52.268;5.192;2024-02-28T01:36:08;101847.38;;;5.65;63.71
74627;BME280;63132;52.268;5.192;2024-02-28T01:38:34;101842.81;;;5.69;63.50
74627;BME280;63132;52.268;5.192;2024-02-28T01:41:00;101835.13;;;5.75;63.77
74627;BME280;63132;52.268;5.192;2024-02-28T01:43:25;101841.28;;;5.84;63.71
74627;BME280;63132;52.268;5.192;2024-02-28T01:45:51;101843.00;;;5.89;63.36
74627;BME280;63132;52.268;5.192;2024-02-28T01:48:16;101838.19;;;5.98;63.87
74627;BME280;63132;52.268;5.192;2024-02-28T01:50:42;101842.53;;;6.11;63.67
74627;BME280;63132;52.268;5.192;2024-02-28T01:53:08;101836.59;;;6.25;63.51
74627;BME280;63132;52.268;5.192;2024-02-28T01:55:37;101838.25;;;6.26;62.97
74627;BME280;63132;52.268;5.192;2024-02-28T01:58:03;101830.09;;;6.17;63.44
74627;BME280;63132;52.268;5.192;2024-02-28T02:00:32;101829.91;;;6.10;63.33
74627;BME280;63132;52.268;5.192;2024-02-28T02:02:58;101835.09;;;5.99;62.78
74627;BME280;63132;52.268;5.192;2024-02-28T02:05:24;101828.44;;;6.00;63.55
74627;BME280;63132;52.268;5.192;2024-02-28T02:07:49;101836.47;;;5.93;63.05
74627;BME280;63132;52.268;5.192;2024-02-28T02:10:15;101836.25;;;5.98;63.58
74627;BME280;63132;52.268;5.192;2024-02-28T02:12:41;101835.53;;;6.01;63.48
74627;BME280;63132;52.268;5.192;2024-02-28T02:15:06;101837.03;;;6.11;63.62
74627;BME280;63132;52.268;5.192;2024-02-28T02:17:32;101835.50;;;6.26;63.26
74627;BME280;63132;52.268;5.192;2024-02-28T02:19:57;101839.09;;;6.42;62.94
74627;BME280;63132;52.268;5.192;2024-02-28T02:22:27;101834.78;;;6.57;63.13
74627;BME280;63132;52.268;5.192;2024-02-28T02:24:52;101833.53;;;6.70;62.70
74627;BME280;63132;52.268;5.192;2024-02-28T02:27:17;101834.81;;;6.88;62.47
74627;BME280;63132;52.268;5.192;2024-02-28T02:29:43;101835.06;;;6.99;62.20
74627;BME280;63132;52.268;5.192;2024-02-28T02:32:08;101834.81;;;7.04;63.52
74627;BME280;63132;52.268;5.192;2024-02-28T02:34:34;101834.47;;;7.21;62.45
74627;BME280;63132;52.268;5.192;2024-02-28T02:36:59;101843.00;;;7.32;62.61
74627;BME280;63132;52.268;5.192;2024-02-28T02:39:24;101837.31;;;7.41;62.07
74627;BME280;63132;52.268;5.192;2024-02-28T02:41:50;101832.75;;;7.48;61.67
74627;BME280;63132;52.268;5.192;2024-02-28T02:44:15;101834.72;;;7.48;62.57
74627;BME280;63132;52.268;5.192;2024-02-28T02:46:41;101825.38;;;7.53;62.60
74627;BME280;63132;52.268;5.192;2024-02-28T02:49:06;101824.63;;;7.71;62.41
74627;BME280;63132;52.268;5.192;2024-02-28T02:51:31;101833.41;;;7.77;62.44
74627;BME280;63132;52.268;5.192;2024-02-28T02:53:57;101835.69;;;7.91;62.33
74627;BME280;63132;52.268;5.192;2024-02-28T02:56:22;101836.91;;;7.93;62.83
74627;BME280;63132;52.268;5.192;2024-02-28T02:58:48;101828.69;;;7.97;61.56
74627;BME280;63132;52.268;5.192;2024-02-28T03:01:13;101822.06;;;7.98;61.71
74627;BME280;63132;52.268;5.192;2024-02-28T03:03:39;101822.03;;;8.17;62.04
74627;BME280;63132;52.268;5.192;2024-02-28T03:06:04;101819.59;;;8.12;61.05
74627;BME280;63132;52.268;5.192;2024-02-28T03:08:33;101817.78;;;8.20;62.47
74627;BME280;63132;52.268;5.192;2024-02-28T03:10:58;101813.25;;;8.31;61.42
74627;BME280;63132;52.268;5.192;2024-02-28T03:13:23;101812.22;;;8.36;61.66
74627;BME280;63132;52.268;5.192;2024-02-28T03:15:49;101811.91;;;8.41;62.26
74627;BME280;63132;52.268;5.192;2024-02-28T03:18:14;101816.19;;;8.38;62.31
74627;BME280;63132;52.268;5.192;2024-02-28T03:20:39;101812.41;;;8.46;62.00
74627;BME280;63132;52.268;5.192;2024-02-28T03:23:05;101820.78;;;8.50;62.35
74627;BME280;63132;52.268;5.192;2024-02-28T03:25:32;101818.28;;;8.64;61.96
74627;BME280;63132;52.268;5.192;2024-02-28T03:27:57;101820.22;;;8.64;59.78
74627;BME280;63132;52.268;5.192;2024-02-28T03:30:23;101807.00;;;8.73;60.34
74627;BME280;63132;52.268;5.192;2024-02-28T03:32:48;101818.50;;;8.78;61.40
74627;BME280;63132;52.268;5.192;2024-02-28T03:35:14;101813.09;;;8.63;61.39
74627;BME280;63132;52.268;5.192;2024-02-28T03:37:39;101809.81;;;8.76;61.80
74627;BME280;63132;52.268;5.192;2024-02-28T03:40:05;101812.94;;;8.98;61.33
74627;BME280;63132;52.268;5.192;2024-02-28T03:42:31;101811.59;;;9.11;60.29
74627;BME280;63132;52.268;5.192;2024-02-28T03:44:56;101802.44;;;9.07;61.26
74627;BME280;63132;52.268;5.192;2024-02-28T03:47:22;101807.69;;;9.15;60.94
74627;BME280;63132;52.268;5.192;2024-02-28T03:49:47;101810.59;;;9.23;60.16
74627;BME280;63132;52.268;5.192;2024-02-28T03:52:13;101813.84;;;9.05;60.89
74627;BME280;63132;52.268;5.192;2024-02-28T03:54:42;101818.88;;;9.23;59.90
74627;BME280;63132;52.268;5.192;2024-02-28T03:57:07;101815.16;;;9.38;60.43
74627;BME280;63132;52.268;5.192;2024-02-28T03:59:32;101812.06;;;9.39;60.10
74627;BME280;63132;52.268;5.192;2024-02-28T04:01:58;101825.53;;;9.44;60.16
74627;BME280;63132;52.268;5.192;2024-02-28T04:04:23;101813.94;;;9.35;60.71
74627;BME280;63132;52.268;5.192;2024-02-28T04:06:48;101819.47;;;9.35;59.19
74627;BME280;63132;52.268;5.192;2024-02-28T04:09:14;101817.84;;;9.57;58.89
74627;BME280;63132;52.268;5.192;2024-02-28T04:11:39;101819.91;;;9.64;59.81
74627;BME280;63132;52.268;5.192;2024-02-28T04:14:04;101824.91;;;9.55;59.85
74627;BME280;63132;52.268;5.192;2024-02-28T04:16:30;101819.31;;;9.51;60.46
74627;BME280;63132;52.268;5.192;2024-02-28T04:18:55;101818.84;;;9.46;59.49
74627;BME280;63132;52.268;5.192;2024-02-28T04:21:20;101825.72;;;9.55;60.37
74627;BME280;63132;52.268;5.192;2024-02-28T04:23:46;101824.34;;;9.68;59.00
74627;BME280;63132;52.268;5.192;2024-02-28T04:26:11;101826.50;;;9.56;59.32
74627;BME280;63132;52.268;5.192;2024-02-28T04:28:37;101820.88;;;9.49;58.51
74627;BME280;63132;52.268;5.192;2024-02-28T04:31:03;101825.75;;;9.59;59.40
74627;BME280;63132;52.268;5.192;2024-02-28T04:33:28;101830.09;;;9.60;58.46
74627;BME280;63132;52.268;5.192;2024-02-28T04:35:53;101833.25;;;9.58;59.87
74627;BME280;63132;52.268;5.192;2024-02-28T04:38:19;101833.31;;;9.62;59.95
74627;BME280;63132;52.268;5.192;2024-02-28T04:40:44;101836.50;;;9.64;59.54
74627;BME280;63132;52.268;5.192;2024-02-28T04:43:10;101847.16;;;9.62;59.60
74627;BME280;63132;52.268;5.192;2024-02-28T04:45:35;101843.63;;;9.65;59.38
74627;BME280;63132;52.268;5.192;2024-02-28T04:48:00;101849.00;;;9.81;58.56
74627;BME280;63132;52.268;5.192;2024-02-28T04:50:26;101859.91;;;9.70;58.74
74627;BME280;63132;52.268;5.192;2024-02-28T04:52:51;101852.31;;;9.63;59.38
74627;BME280;63132;52.268;5.192;2024-02-28T04:55:16;101851.13;;;9.64;59.29
74627;BME280;63132;52.268;5.192;2024-02-28T04:57:42;101845.69;;;9.45;59.35
74627;BME280;63132;52.268;5.192;2024-02-28T05:00:07;101845.69;;;9.71;59.31
74627;BME280;63132;52.268;5.192;2024-02-28T05:02:33;101842.38;;;9.89;58.83
74627;BME280;63132;52.268;5.192;2024-02-28T05:04:59;101844.16;;;9.74;59.15
74627;BME280;63132;52.268;5.192;2024-02-28T05:07:24;101845.50;;;9.84;58.77
74627;BME280;63132;52.268;5.192;2024-02-28T05:09:50;101851.28;;;9.75;58.60
74627;BME280;63132;52.268;5.192;2024-02-28T05:12:15;101850.13;;;9.76;59.73
74627;BME280;63132;52.268;5.192;2024-02-28T05:14:40;101841.88;;;9.80;59.00
74627;BME280;63132;52.268;5.192;2024-02-28T05:17:06;101847.03;;;9.81;59.50
74627;BME280;63132;52.268;5.192;2024-02-28T05:19:31;101847.47;;;9.83;58.85
74627;BME280;63132;52.268;5.192;2024-02-28T05:21:56;101847.34;;;9.76;59.13
74627;BME280;63132;52.268;5.192;2024-02-28T05:24:22;101857.97;;;9.74;59.45
74627;BME280;63132;52.268;5.192;2024-02-28T05:26:47;101854.47;;;9.77;59.38
74627;BME280;63132;52.268;5.192;2024-02-28T05:29:12;101842.75;;;9.87;58.72
74627;BME280;63132;52.268;5.192;2024-02-28T05:31:38;101845.50;;;9.84;58.15
74627;BME280;63132;52.268;5.192;2024-02-28T05:34:03;101847.88;;;9.85;58.88
74627;BME280;63132;52.268;5.192;2024-02-28T05:36:30;101848.88;;;10.00;58.23
74627;BME280;63132;52.268;5.192;2024-02-28T05:38:58;101850.06;;;9.99;58.50
74627;BME280;63132;52.268;5.192;2024-02-28T05:41:23;101846.31;;;9.88;58.36
74627;BME280;63132;52.268;5.192;2024-02-28T05:43:49;101849.97;;;9.95;59.41
74627;BME280;63132;52.268;5.192;2024-02-28T05:46:15;101843.28;;;9.96;58.56
74627;BME280;63132;52.268;5.192;2024-02-28T05:48:42;101850.75;;;9.92;58.84
74627;BME280;63132;52.268;5.192;2024-02-28T05:51:07;101847.00;;;10.08;58.42
74627;BME280;63132;52.268;5.192;2024-02-28T05:53:33;101850.25;;;10.13;58.74
74627;BME280;63132;52.268;5.192;2024-02-28T05:56:07;101853.44;;;10.15;58.37
74627;BME280;63132;52.268;5.192;2024-02-28T05:58:43;101858.97;;;10.15;58.81
74627;BME280;63132;52.268;5.192;2024-02-28T06:01:10;101854.63;;;10.18;59.01
74627;BME280;63132;52.268;5.192;2024-02-28T06:03:38;101850.56;;;10.08;58.86
74627;BME280;63132;52.268;5.192;2024-02-28T06:06:04;101855.94;;;10.24;58.06
74627;BME280;63132;52.268;5.192;2024-02-28T06:08:33;101850.47;;;10.31;57.80
74627;BME280;63132;52.268;5.192;2024-02-28T06:10:59;101850.69;;;10.19;58.61
74627;BME280;63132;52.268;5.192;2024-02-28T06:13:24;101848.97;;;10.37;58.42
74627;BME280;63132;52.268;5.192;2024-02-28T06:15:50;101850.56;;;10.38;58.21
74627;BME280;63132;52.268;5.192;2024-02-28T06:18:15;101851.25;;;10.28;58.22
74627;BME280;63132;52.268;5.192;2024-02-28T06:20:43;101853.16;;;10.24;58.85
74627;BME280;63132;52.268;5.192;2024-02-28T06:23:08;101860.94;;;10.45;58.03
74627;BME280;63132;52.268;5.192;2024-02-28T06:25:34;101862.47;;;10.42;58.22
74627;BME280;63132;52.268;5.192;2024-02-28T06:28:00;101860.59;;;10.50;58.56
74627;BME280;63132;52.268;5.192;2024-02-28T06:30:28;101856.31;;;10.56;58.47
74627;BME280;63132;52.268;5.192;2024-02-28T06:32:53;101860.63;;;10.53;58.68
74627;BME280;63132;52.268;5.192;2024-02-28T06:35:18;101863.78;;;10.52;58.55
74627;BME280;63132;52.268;5.192;2024-02-28T06:37:44;101869.06;;;10.31;59.41
74627;BME280;63132;52.268;5.192;2024-02-28T06:40:15;101883.56;;;10.50;58.29
74627;BME280;63132;52.268;5.192;2024-02-28T06:42:40;101876.38;;;10.46;58.54
74627;BME280;63132;52.268;5.192;2024-02-28T06:45:06;101877.66;;;10.56;57.94
74627;BME280;63132;52.268;5.192;2024-02-28T06:47:32;101887.16;;;10.54;58.38
74627;BME280;63132;52.268;5.192;2024-02-28T06:49:58;101885.66;;;10.61;58.07
74627;BME280;63132;52.268;5.192;2024-02-28T06:52:23;101898.00;;;10.67;57.93
74627;BME280;63132;52.268;5.192;2024-02-28T06:54:48;101898.41;;;10.69;57.96
74627;BME280;63132;52.268;5.192;2024-02-28T06:57:14;101908.69;;;10.68;57.70
74627;BME280;63132;52.268;5.192;2024-02-28T06:59:39;101900.06;;;10.73;57.84
74627;BME280;63132;52.268;5.192;2024-02-28T07:02:05;101907.56;;;10.73;57.55
74627;BME280;63132;52.268;5.192;2024-02-28T07:04:30;101908.28;;;10.66;58.18
74627;BME280;63132;52.268;5.192;2024-02-28T07:06:55;101895.09;;;10.56;58.95
74627;BME280;63132;52.268;5.192;2024-02-28T07:09:21;101900.84;;;10.74;58.18
74627;BME280;63132;52.268;5.192;2024-02-28T07:11:46;101900.94;;;10.81;58.50
74627;BME280;63132;52.268;5.192;2024-02-28T07:14:11;101916.00;;;10.87;57.71
74627;BME280;63132;52.268;5.192;2024-02-28T07:16:37;101914.84;;;10.88;58.38
74627;BME280;63132;52.268;5.192;2024-02-28T07:19:02;101907.84;;;11.01;57.61
74627;BME280;63132;52.268;5.192;2024-02-28T07:21:28;101909.41;;;10.95;58.32
74627;BME280;63132;52.268;5.192;2024-02-28T07:23:54;101909.19;;;11.15;57.26
74627;BME280;63132;52.268;5.192;2024-02-28T07:26:20;101901.25;;;11.17;57.71
74627;BME280;63132;52.268;5.192;2024-02-28T07:28:45;101914.38;;;11.20;57.86
74627;BME280;63132;52.268;5.192;2024-02-28T07:31:18;101911.63;;;11.20;57.71
74627;BME280;63132;52.268;5.192;2024-02-28T07:33:44;101917.22;;;11.27;58.33
74627;BME280;63132;52.268;5.192;2024-02-28T07:36:09;101923.19;;;11.29;58.25
74627;BME280;63132;52.268;5.192;2024-02-28T07:38:35;101930.03;;;11.42;58.27
74627;BME280;63132;52.268;5.192;2024-02-28T07:41:01;101934.41;;;11.47;57.61
74627;BME280;63132;52.268;5.192;2024-02-28T07:43:27;101938.06;;;11.54;57.33
74627;BME280;63132;52.268;5.192;2024-02-28T07:45:53;101934.81;;;11.45;57.85
74627;BME280;63132;52.268;5.192;2024-02-28T07:48:19;101938.44;;;11.49;57.34
74627;BME280;63132;52.268;5.192;2024-02-28T07:50:45;101942.84;;;11.57;57.65
74627;BME280;63132;52.268;5.192;2024-02-28T07:53:11;101943.59;;;11.54;57.30
74627;BME280;63132;52.268;5.192;2024-02-28T07:55:37;101949.94;;;11.51;57.73
74627;BME280;63132;52.268;5.192;2024-02-28T07:58:03;101950.63;;;11.41;58.35
74627;BME280;63132;52.268;5.192;2024-02-28T08:00:30;101949.06;;;11.44;58.14
74627;BME280;63132;52.268;5.192;2024-02-28T08:02:58;101950.84;;;11.62;57.31
74627;BME280;63132;52.268;5.192;2024-02-28T08:05:23;101957.06;;;11.52;58.46
74627;BME280;63132;52.268;5.192;2024-02-28T08:07:49;101954.88;;;11.76;57.73
74627;BME280;63132;52.268;5.192;2024-02-28T08:10:14;101963.81;;;11.99;57.49
74627;BME280;63132;52.268;5.192;2024-02-28T08:12:40;101956.66;;;11.95;57.10
74627;BME280;63132;52.268;5.192;2024-02-28T08:15:05;101964.59;;;11.96;57.27
74627;BME280;63132;52.268;5.192;2024-02-28T08:17:31;101966.31;;;12.15;57.17
74627;BME280;63132;52.268;5.192;2024-02-28T08:19:56;101971.44;;;12.09;57.30
74627;BME280;63132;52.268;5.192;2024-02-28T08:22:21;101964.13;;;11.87;57.76
74627;BME280;63132;52.268;5.192;2024-02-28T08:24:47;101955.78;;;12.49;56.86
74627;BME280;63132;52.268;5.192;2024-02-28T08:27:16;101972.09;;;12.54;55.53
74627;BME280;63132;52.268;5.192;2024-02-28T08:29:41;101971.66;;;12.45;56.55
74627;BME280;63132;52.268;5.192;2024-02-28T08:32:10;101980.22;;;12.18;56.80
74627;BME280;63132;52.268;5.192;2024-02-28T08:34:35;101978.94;;;12.05;57.50
74627;BME280;63132;52.268;5.192;2024-02-28T08:37:01;101980.31;;;12.29;57.31
74627;BME280;63132;52.268;5.192;2024-02-28T08:39:26;101992.22;;;12.30;57.40
74627;BME280;63132;52.268;5.192;2024-02-28T08:41:51;101983.69;;;12.01;58.06
74627;BME280;63132;52.268;5.192;2024-02-28T08:44:17;101991.38;;;12.26;57.63
74627;BME280;63132;52.268;5.192;2024-02-28T08:46:43;101992.59;;;12.32;57.42
74627;BME280;63132;52.268;5.192;2024-02-28T08:49:08;101989.47;;;12.37;57.22
74627;BME280;63132;52.268;5.192;2024-02-28T08:51:34;101975.63;;;12.47;56.82
74627;BME280;63132;52.268;5.192;2024-02-28T08:53:59;101983.59;;;12.56;56.82
74627;BME280;63132;52.268;5.192;2024-02-28T08:56:25;101985.69;;;12.81;56.84
74627;BME280;63132;52.268;5.192;2024-02-28T08:58:51;101982.97;;;12.91;57.07
74627;BME280;63132;52.268;5.192;2024-02-28T09:01:16;101989.72;;;12.94;56.57
74627;BME280;63132;52.268;5.192;2024-02-28T09:03:41;101990.19;;;13.17;55.46
74627;BME280;63132;52.268;5.192;2024-02-28T09:06:07;101983.00;;;13.02;56.51
74627;BME280;63132;52.268;5.192;2024-02-28T09:08:32;101985.13;;;13.34;56.10
74627;BME280;63132;52.268;5.192;2024-02-28T09:10:58;101978.66;;;13.08;55.90
74627;BME280;63132;52.268;5.192;2024-02-28T09:13:23;101973.22;;;13.51;54.83
74627;BME280;63132;52.268;5.192;2024-02-28T09:15:49;101965.66;;;13.66;55.19
74627;BME280;63132;52.268;5.192;2024-02-28T09:18:14;101958.91;;;13.95;54.14
74627;BME280;63132;52.268;5.192;2024-02-28T09:20:39;101964.47;;;13.81;54.41
74627;BME280;63132;52.268;5.192;2024-02-28T09:23:05;101968.81;;;14.10;53.63
74627;BME280;63132;52.268;5.192;2024-02-28T09:25:32;101966.75;;;14.43;53.01
74627;BME280;63132;52.268;5.192;2024-02-28T09:27:58;101964.34;;;14.63;52.16
74627;BME280;63132;52.268;5.192;2024-02-28T09:30:25;101976.31;;;14.56;52.48
74627;BME280;63132;52.268;5.192;2024-02-28T09:32:50;101973.09;;;14.58;51.74
74627;BME280;63132;52.268;5.192;2024-02-28T09:35:16;101965.97;;;14.53;52.10
74627;BME280;63132;52.268;5.192;2024-02-28T09:37:41;101967.94;;;14.42;52.13
74627;BME280;63132;52.268;5.192;2024-02-28T09:40:09;101979.47;;;14.44;52.65
74627;BME280;63132;52.268;5.192;2024-02-28T09:42:35;101968.34;;;14.55;52.50
74627;BME280;63132;52.268;5.192;2024-02-28T09:45:01;101979.44;;;14.65;51.50
74627;BME280;63132;52.268;5.192;2024-02-28T09:47:29;101978.22;;;14.77;51.23
74627;BME280;63132;52.268;5.192;2024-02-28T09:49:57;101987.91;;;14.26;51.97
74627;BME280;63132;52.268;5.192;2024-02-28T09:52:26;101987.47;;;14.53;51.99
74627;BME280;63132;52.268;5.192;2024-02-28T09:54:52;101983.91;;;14.20;52.51
74627;BME280;63132;52.268;5.192;2024-02-28T09:57:18;101997.47;;;13.68;53.42
74627;BME280;63132;52.268;5.192;2024-02-28T09:59:43;101998.22;;;14.36;52.00
74627;BME280;63132;52.268;5.192;2024-02-28T10:02:10;102004.25;;;13.89;52.97
74627;BME280;63132;52.268;5.192;2024-02-28T10:04:37;102001.47;;;13.96;53.04
74627;BME280;63132;52.268;5.192;2024-02-28T10:07:15;101992.66;;;14.29;52.75
74627;BME280;63132;52.268;5.192;2024-02-28T10:09:41;101987.50;;;14.31;52.45
74627;BME280;63132;52.268;5.192;2024-02-28T10:12:07;101989.47;;;14.27;51.64
74627;BME280;63132;52.268;5.192;2024-02-28T10:14:32;101981.06;;;14.59;50.89
74627;BME280;63132;52.268;5.192;2024-02-28T10:16:58;101984.22;;;14.72;51.41
74627;BME280;63132;52.268;5.192;2024-02-28T10:19:23;101981.47;;;14.44;51.48
74627;BME280;63132;52.268;5.192;2024-02-28T10:21:50;101970.75;;;14.53;51.33
74627;BME280;63132;52.268;5.192;2024-02-28T10:24:15;101976.19;;;14.81;50.94
74627;BME280;63132;52.268;5.192;2024-02-28T10:26:44;101972.25;;;14.75;50.71
74627;BME280;63132;52.268;5.192;2024-02-28T10:29:10;101973.38;;;14.92;50.58
74627;BME280;63132;52.268;5.192;2024-02-28T10:31:37;101974.06;;;15.14;50.00
74627;BME280;63132;52.268;5.192;2024-02-28T10:34:03;101979.28;;;15.05;50.09
74627;BME280;63132;52.268;5.192;2024-02-28T10:36:31;101972.31;;;15.38;49.23
74627;BME280;63132;52.268;5.192;2024-02-28T10:38:57;101976.06;;;15.10;50.17
74627;BME280;63132;52.268;5.192;2024-02-28T10:41:24;101970.19;;;14.86;50.27
74627;BME280;63132;52.268;5.192;2024-02-28T10:43:51;101970.28;;;14.68;51.27
74627;BME280;63132;52.268;5.192;2024-02-28T10:46:20;101968.94;;;15.02;50.73
74627;BME280;63132;52.268;5.192;2024-02-28T10:48:45;101962.63;;;14.90;50.40
74627;BME280;63132;52.268;5.192;2024-02-28T10:51:15;101969.03;;;15.50;50.12
74627;BME280;63132;52.268;5.192;2024-02-28T10:53:41;101971.78;;;16.05;48.82
74627;BME280;63132;52.268;5.192;2024-02-28T10:56:09;101967.59;;;15.83;48.79
74627;BME280;63132;52.268;5.192;2024-02-28T10:58:36;101965.69;;;16.18;48.25
74627;BME280;63132;52.268;5.192;2024-02-28T11:01:02;101980.63;;;16.38;47.89
74627;BME280;63132;52.268;5.192;2024-02-28T11:03:28;101964.16;;;16.10;48.85
74627;BME280;63132;52.268;5.192;2024-02-28T11:05:55;101973.44;;;16.75;47.62
74627;BME280;63132;52.268;5.192;2024-02-28T11:08:21;101975.88;;;16.73;47.09
74627;BME280;63132;52.268;5.192;2024-02-28T11:10:53;101965.69;;;16.18;48.26
74627;BME280;63132;52.268;5.192;2024-02-28T11:13:26;101962.56;;;16.09;48.27
74627;BME280;63132;52.268;5.192;2024-02-28T11:15:52;101970.50;;;16.14;48.49
74627;BME280;63132;52.268;5.192;2024-02-28T11:18:18;101966.25;;;15.46;49.78
74627;BME280;63132;52.268;5.192;2024-02-28T11:20:44;101959.31;;;16.14;48.56
74627;BME280;63132;52.268;5.192;2024-02-28T11:23:13;101960.56;;;15.61;49.16
74627;BME280;63132;52.268;5.192;2024-02-28T11:25:42;101960.09;;;15.14;50.99
74627;BME280;63132;52.268;5.192;2024-02-28T11:28:08;101960.91;;;15.73;50.14
74627;BME280;63132;52.268;5.192;2024-02-28T11:30:33;101965.69;;;16.18;49.00
74627;BME280;63132;52.268;5.192;2024-02-28T11:32:59;101971.00;;;16.01;48.84
74627;BME280;63132;52.268;5.192;2024-02-28T11:35:27;101963.75;;;15.63;49.17
74627;BME280;63132;52.268;5.192;2024-02-28T11:37:56;101965.38;;;15.60;49.03
74627;BME280;63132;52.268;5.192;2024-02-28T11:40:23;101962.63;;;14.90;50.96
74627;BME280;63132;52.268;5.192;2024-02-28T11:42:51;101948.31;;;14.85;51.75
74627;BME280;63132;52.268;5.192;2024-02-28T11:45:16;101949.22;;;15.30;50.97
74627;BME280;63132;52.268;5.192;2024-02-28T11:47:41;101939.78;;;15.10;51.46
74627;BME280;63132;52.268;5.192;2024-02-28T11:50:07;101937.13;;;15.47;50.24
74627;BME280;63132;52.268;5.192;2024-02-28T11:52:33;101938.88;;;15.79;49.71
74627;BME280;63132;52.268;5.192;2024-02-28T11:54:59;101935.22;;;15.89;49.57
74627;BME280;63132;52.268;5.192;2024-02-28T11:57:25;101938.97;;;16.13;49.17
74627;BME280;63132;52.268;5.192;2024-02-28T11:59:51;101941.84;;;16.06;49.31
74627;BME280;63132;52.268;5.192;2024-02-28T12:02:17;101944.00;;;16.29;48.89
74627;BME280;63132;52.268;5.192;2024-02-28T12:04:42;101943.72;;;16.54;48.63
74627;BME280;63132;52.268;5.192;2024-02-28T12:07:09;101933.66;;;16.26;48.99
74627;BME280;63132;52.268;5.192;2024-02-28T12:09:34;101936.47;;;16.56;48.50
74627;BME280;63132;52.268;5.192;2024-02-28T12:12:03;101932.88;;;16.90;47.70
74627;BME280;63132;52.268;5.192;2024-02-28T12:14:32;101938.75;;;16.99;47.02
74627;BME280;63132;52.268;5.192;2024-02-28T12:16:58;101937.78;;;16.48;48.59
74627;BME280;63132;52.268;5.192;2024-02-28T12:19:23;101938.84;;;16.92;46.96
74627;BME280;63132;52.268;5.192;2024-02-28T12:21:49;101919.63;;;16.64;48.21
74627;BME280;63132;52.268;5.192;2024-02-28T12:24:14;101935.06;;;16.75;47.56
74627;BME280;63132;52.268;5.192;2024-02-28T12:26:39;101934.66;;;16.77;47.39
74627;BME280;63132;52.268;5.192;2024-02-28T12:29:05;101937.91;;;17.02;46.69
74627;BME280;63132;52.268;5.192;2024-02-28T12:31:30;101930.41;;;16.96;46.68
74627;BME280;63132;52.268;5.192;2024-02-28T12:33:55;101927.06;;;17.04;47.00
74627;BME280;63132;52.268;5.192;2024-02-28T12:36:21;101922.00;;;16.65;47.57
74627;BME280;63132;52.268;5.192;2024-02-28T12:38:46;101918.28;;;16.41;47.58
74627;BME280;63132;52.268;5.192;2024-02-28T12:41:12;101924.69;;;17.03;46.90
74627;BME280;63132;52.268;5.192;2024-02-28T12:43:38;101920.53;;;16.87;46.68
74627;BME280;63132;52.268;5.192;2024-02-28T12:46:04;101922.09;;;16.58;46.95
74627;BME280;63132;52.268;5.192;2024-02-28T12:48:31;101919.13;;;16.38;47.97